Overseas Anacortes — KCHV — position and weather

sailwx.info

Track history (hours):
 
Tides and Currents Weather Stations Pressure Air Temp Water Temp Dewpoint Dewpoint Depression Visibility Wind Speed Wind Dir Waves Ship Positions

Overseas Anacortes

Owner: ASC Leasing IX, Inc., Philadelphia, PA. More information available from US FCC via Universal Licensing System and Coast Guard Vessel Documentation Center.

Last reported at 2018-Jun-20 18:00 UTC. Time now 2018-Jun-20 22:45 UTC.
Position N 27°54' W 091°12'.

Length 182 m; draft 8.2 m.

Type: Tanker. MMSI: 366539000.

Wind from 150 at 12 knots

Barometer 1013.3 mb
Air temperature 29.4 ° C
Visibility: greater than 10.8 NM
Dewpoint 24.7 ° C

Date/timePositionNaut miles runAvg speedWind from/ knotsBaromVisibWave heightAir tempDewpointWater temp
2018-Jun-20 18:00N 27°54' W 091°12'   150 / 121013.310.8 29.424.7
2018-Jun-16 18:00N 27°48' W 092°36'9015.1 120 / 191013.527.0 29.524.7
2018-Jun-16 12:00N 27°42' W 094°18'   150 / 171011.227.0 27.523.9
2018-Jun-13 18:00N 28°18' W 095°48'3310.7 170 / 61016.827.0 29.324.9
2018-Jun-13 14:55N 28°38' W 095°18'612.6
2018-Jun-13 14:28N 28°41' W 095°13'612.6
2018-Jun-13 13:57N 28°45' W 095°07'612.7
2018-Jun-13 13:31N 28°48' W 095°01'612.4
2018-Jun-13 13:00N 28°51' W 094°55'612.1
2018-Jun-13 12:30N 28°54' W 094°50'612.8
2018-Jun-13 12:00N 28°58' W 094°43'7639.6
2018-Jun-13 12:00N 29°00' W 094°36'3 6.5 180 / 161015.027.0 28.024.0
2018-Jun-13 11:30N 29°02' W 094°39'712.9
2018-Jun-13 10:58N 29°09' W 094°38'612.7
2018-Jun-13 10:30N 29°15' W 094°36'510.0
2018-Jun-13 10:00N 29°19' W 094°39'510.2
2018-Jun-13 09:30N 29°21' W 094°45'5 9.6
2018-Jun-13 09:00N 29°22' W 094°50'3 5.4
2018-Jun-13 08:30N 29°22' W 094°53'0 0.7
2018-Jun-13 08:00N 29°22' W 094°53'0 0.0
2018-Jun-13 07:30N 29°22' W 094°53'0 0.0
2018-Jun-13 06:48N 29°22' W 094°53'0 0.0
2018-Jun-13 06:27N 29°22' W 094°53'0 0.0
2018-Jun-13 05:42N 29°22' W 094°53'0 0.0
2018-Jun-13 04:18N 29°22' W 094°53'0 0.0
2018-Jun-13 03:54N 29°22' W 094°53'0 0.0
2018-Jun-13 02:24N 29°22' W 094°53'0 0.0
2018-Jun-13 02:00N 29°22' W 094°53'0 0.0
2018-Jun-13 00:51N 29°22' W 094°53'0 0.0
2018-Jun-12 23:36N 29°22' W 094°53'0 0.0
2018-Jun-12 23:12N 29°22' W 094°53'0 0.0
2018-Jun-12 22:48N 29°22' W 094°53'0 0.0
2018-Jun-12 22:30N 29°22' W 094°53'0 0.0
2018-Jun-12 22:00N 29°22' W 094°53'0 0.0
2018-Jun-12 21:30N 29°22' W 094°53'0 0.0
2018-Jun-12 20:54N 29°22' W 094°53'0 0.0
2018-Jun-12 20:27N 29°22' W 094°53'0 0.0
2018-Jun-12 19:48N 29°22' W 094°53'0 0.0
2018-Jun-12 19:30N 29°22' W 094°53'0 0.0
2018-Jun-12 17:54N 29°22' W 094°53'0 0.0
2018-Jun-12 17:18N 29°22' W 094°53'0 0.0
2018-Jun-12 16:54N 29°22' W 094°53'0 0.0
2018-Jun-12 16:18N 29°22' W 094°53'0 0.0
2018-Jun-12 15:24N 29°22' W 094°53'0 0.0
2018-Jun-12 15:00N 29°22' W 094°53'0 0.0
2018-Jun-12 02:33N 29°22' W 094°53'0 0.0
2018-Jun-12 02:03N 29°22' W 094°53'0 0.0
2018-Jun-12 01:54N 29°22' W 094°53'0 0.0
2018-Jun-12 01:27N 29°22' W 094°53'0 0.0
2018-Jun-12 00:57N 29°22' W 094°53'0 0.0
2018-Jun-12 00:27N 29°22' W 094°53'0 0.0
2018-Jun-11 23:51N 29°22' W 094°53'0 0.0
2018-Jun-11 23:27N 29°22' W 094°53'0 0.0
2018-Jun-11 23:00N 29°22' W 094°53'0 0.0
2018-Jun-11 22:23N 29°22' W 094°53'0 0.5
2018-Jun-11 22:01N 29°22' W 094°53'2 3.5
2018-Jun-11 21:30N 29°22' W 094°51'4 8.6
2018-Jun-11 21:00N 29°21' W 094°47'510.9
2018-Jun-11 20:30N 29°20' W 094°41'611.6
2018-Jun-11 20:00N 29°17' W 094°35'611.6
2018-Jun-11 19:30N 29°13' W 094°30'3 6.8
2018-Jun-11 18:59N 29°11' W 094°27'13 7.1
2018-Jun-11 17:07N 29°02' W 094°38'112.8
2018-Jun-11 17:00N 29°01' W 094°39'713.1
2018-Jun-11 16:30N 28°57' W 094°45'813.3
2018-Jun-11 15:55N 28°53' W 094°53'513.3
2018-Jun-11 15:30N 28°50' W 094°58'613.2
2018-Jun-11 15:01N 28°46' W 095°04'712.9
2018-Jun-11 14:29N 28°42' W 095°10'3714.9
2018-Jun-11 12:00N 28°18' W 095°42'   180 / 201011.210.8 28.025.2
Track history (hours):
 
Tides and Currents Weather Stations Pressure Air Temp Water Temp Dewpoint Dewpoint Depression Visibility Wind Speed Wind Dir Waves Ship Positions

Overseas Anacortes

Owner: ASC Leasing IX, Inc., Philadelphia, PA. More information available from US FCC via Universal Licensing System and Coast Guard Vessel Documentation Center.

Last reported at 2018-Jun-20 18:00 UTC. Time now 2018-Jun-20 22:45 UTC.
Position N 27°54' W 091°12'.

Length 182 m; draft 8.2 m.

Type: Tanker. MMSI: 366539000.

Wind from 150 at 12 knots

Barometer 1013.3 mb
Air temperature 29.4 ° C
Visibility: greater than 10.8 NM
Dewpoint 24.7 ° C

Date/timePositionNaut miles runAvg speedWind from/ knotsBaromVisibWave heightAir tempDewpointWater temp
2018-Jun-20 18:00N 27°54' W 091°12'   150 / 121013.310.8 29.424.7
2018-Jun-16 18:00N 27°48' W 092°36'9015.1 120 / 191013.527.0 29.524.7
2018-Jun-16 12:00N 27°42' W 094°18'   150 / 171011.227.0 27.523.9
2018-Jun-13 18:00N 28°18' W 095°48'3310.7 170 / 61016.827.0 29.324.9
2018-Jun-13 14:55N 28°38' W 095°18'612.6
2018-Jun-13 14:28N 28°41' W 095°13'612.6
2018-Jun-13 13:57N 28°45' W 095°07'612.7
2018-Jun-13 13:31N 28°48' W 095°01'612.4
2018-Jun-13 13:00N 28°51' W 094°55'612.1
2018-Jun-13 12:30N 28°54' W 094°50'612.8
2018-Jun-13 12:00N 28°58' W 094°43'7639.6
2018-Jun-13 12:00N 29°00' W 094°36'3 6.5 180 / 161015.027.0 28.024.0
2018-Jun-13 11:30N 29°02' W 094°39'712.9
2018-Jun-13 10:58N 29°09' W 094°38'612.7
2018-Jun-13 10:30N 29°15' W 094°36'510.0
2018-Jun-13 10:00N 29°19' W 094°39'510.2
2018-Jun-13 09:30N 29°21' W 094°45'5 9.6
2018-Jun-13 09:00N 29°22' W 094°50'3 5.4
2018-Jun-13 08:30N 29°22' W 094°53'0 0.7
2018-Jun-13 08:00N 29°22' W 094°53'0 0.0
2018-Jun-13 07:30N 29°22' W 094°53'0 0.0
2018-Jun-13 06:48N 29°22' W 094°53'0 0.0
2018-Jun-13 06:27N 29°22' W 094°53'0 0.0
2018-Jun-13 05:42N 29°22' W 094°53'0 0.0
2018-Jun-13 04:18N 29°22' W 094°53'0 0.0
2018-Jun-13 03:54N 29°22' W 094°53'0 0.0
2018-Jun-13 02:24N 29°22' W 094°53'0 0.0
2018-Jun-13 02:00N 29°22' W 094°53'0 0.0
2018-Jun-13 00:51N 29°22' W 094°53'0 0.0
2018-Jun-12 23:36N 29°22' W 094°53'0 0.0
2018-Jun-12 23:12N 29°22' W 094°53'0 0.0
2018-Jun-12 22:48N 29°22' W 094°53'0 0.0
2018-Jun-12 22:30N 29°22' W 094°53'0 0.0
2018-Jun-12 22:00N 29°22' W 094°53'0 0.0
2018-Jun-12 21:30N 29°22' W 094°53'0 0.0
2018-Jun-12 20:54N 29°22' W 094°53'0 0.0
2018-Jun-12 20:27N 29°22' W 094°53'0 0.0
2018-Jun-12 19:48N 29°22' W 094°53'0 0.0
2018-Jun-12 19:30N 29°22' W 094°53'0 0.0
2018-Jun-12 17:54N 29°22' W 094°53'0 0.0
2018-Jun-12 17:18N 29°22' W 094°53'0 0.0
2018-Jun-12 16:54N 29°22' W 094°53'0 0.0
2018-Jun-12 16:18N 29°22' W 094°53'0 0.0
2018-Jun-12 15:24N 29°22' W 094°53'0 0.0
2018-Jun-12 15:00N 29°22' W 094°53'0 0.0
2018-Jun-12 02:33N 29°22' W 094°53'0 0.0
2018-Jun-12 02:03N 29°22' W 094°53'0 0.0
2018-Jun-12 01:54N 29°22' W 094°53'0 0.0
2018-Jun-12 01:27N 29°22' W 094°53'0 0.0
2018-Jun-12 00:57N 29°22' W 094°53'0 0.0
2018-Jun-12 00:27N 29°22' W 094°53'0 0.0
2018-Jun-11 23:51N 29°22' W 094°53'0 0.0
2018-Jun-11 23:27N 29°22' W 094°53'0 0.0
2018-Jun-11 23:00N 29°22' W 094°53'0 0.0
2018-Jun-11 22:23N 29°22' W 094°53'0 0.5
2018-Jun-11 22:01N 29°22' W 094°53'2 3.5
2018-Jun-11 21:30N 29°22' W 094°51'4 8.6
2018-Jun-11 21:00N 29°21' W 094°47'510.9
2018-Jun-11 20:30N 29°20' W 094°41'611.6
2018-Jun-11 20:00N 29°17' W 094°35'611.6
2018-Jun-11 19:30N 29°13' W 094°30'3 6.8
2018-Jun-11 18:59N 29°11' W 094°27'13 7.1
2018-Jun-11 17:07N 29°02' W 094°38'112.8
2018-Jun-11 17:00N 29°01' W 094°39'713.1
2018-Jun-11 16:30N 28°57' W 094°45'813.3
2018-Jun-11 15:55N 28°53' W 094°53'513.3
2018-Jun-11 15:30N 28°50' W 094°58'613.2
2018-Jun-11 15:01N 28°46' W 095°04'712.9
2018-Jun-11 14:29N 28°42' W 095°10'3714.9
2018-Jun-11 12:00N 28°18' W 095°42'   180 / 201011.210.8 28.025.2

Dump ship's entire track history